Time;durP1;ratioP1;P1;durP2;ratioP2;P2;SDS_P1;SDS_P2;PMS_P1;PMS_P2;Temp;Humidity;BMP_temperature;BMP_pressure;BME280_temperature;BME280_humidity;BME280_pressure;Samples;Min_cycle;Max_cycle;Signal;HPM_P1;HPM_P2
2022/05/02 00:00:53;;;;;;;22.17;15.23;;;9.90;80.40;;;;;;5071078;28;20346;-83
2022/05/02 00:03:19;;;;;;;18.13;12.77;;;9.90;80.20;;;;;;5070960;28;20025;-83
2022/05/02 00:05:45;;;;;;;19.90;13.65;;;9.90;79.20;;;;;;5070986;28;20025;-83
2022/05/02 00:08:10;;;;;;;20.50;13.23;;;9.90;79.70;;;;;;5074080;28;20044;-83
2022/05/02 00:10:36;;;;;;;21.17;13.88;;;9.90;78.80;;;;;;5076215;28;20020;-84
2022/05/02 00:13:02;;;;;;;18.17;12.05;;;9.90;78.10;;;;;;5076055;28;20017;-83
2022/05/02 00:15:29;;;;;;;19.55;11.60;;;9.90;78.00;;;;;;5075881;28;20028;-83
2022/05/02 00:17:58;;;;;;;16.20;11.10;;;9.90;80.00;;;;;;5076930;28;20052;-82
2022/05/02 00:20:30;;;;;;;14.05;10.50;;;10.00;76.00;;;;;;5116382;28;20020;-84
2022/05/02 00:22:58;;;;;;;16.08;10.20;;;10.00;75.90;;;;;;5098041;28;20023;-83
2022/05/02 00:25:24;;;;;;;17.02;11.00;;;10.00;76.10;;;;;;5098163;28;20015;-83
2022/05/02 00:27:50;;;;;;;16.55;11.20;;;10.00;76.60;;;;;;5098000;28;20439;-82
2022/05/02 00:30:17;;;;;;;18.48;12.50;;;10.10;78.60;;;;;;5098040;28;20023;-82
2022/05/02 00:32:44;;;;;;;15.88;12.15;;;10.10;80.40;;;;;;5097877;28;20020;-82
2022/05/02 00:35:11;;;;;;;20.65;12.02;;;10.10;81.60;;;;;;5116244;28;20068;-82
2022/05/02 00:37:40;;;;;;;17.58;12.40;;;10.10;81.10;;;;;;5116244;28;20020;-83
2022/05/02 00:40:12;;;;;;;18.58;13.10;;;10.10;80.20;;;;;;5097859;28;20111;-83
2022/05/02 00:42:38;;;;;;;20.30;13.00;;;10.10;79.70;;;;;;5097841;28;20076;-83
2022/05/02 00:45:06;;;;;;;17.45;10.30;;;10.10;78.80;;;;;;5097783;28;20114;-83
2022/05/02 00:47:32;;;;;;;10.15;8.85;;;10.10;78.90;;;;;;5097382;28;20034;-82
2022/05/02 00:49:57;;;;;;;14.13;8.32;;;10.10;76.60;;;;;;5097571;28;20027;-83
2022/05/02 00:52:23;;;;;;;11.00;8.20;;;10.10;75.80;;;;;;5115699;28;20476;-81
2022/05/02 00:54:49;;;;;;;12.65;8.48;;;10.10;75.20;;;;;;5115869;28;20102;-83
2022/05/02 00:57:16;;;;;;;11.45;8.82;;;10.10;74.40;;;;;;5097148;28;20077;-83
2022/05/02 00:59:42;;;;;;;12.13;8.65;;;10.10;72.60;;;;;;5115743;28;20377;-82
2022/05/02 01:02:12;;;;;;;10.88;7.57;;;10.10;74.20;;;;;;5097235;28;20023;-83
2022/05/02 01:04:38;;;;;;;12.10;8.02;;;10.10;75.40;;;;;;5097320;28;20019;-82
2022/05/02 01:07:10;;;;;;;10.20;6.60;;;10.00;72.20;;;;;;5097342;28;20035;-82
2022/05/02 01:09:41;;;;;;;14.45;7.45;;;10.00;71.00;;;;;;5097477;28;20066;-84
2022/05/02 01:12:09;;;;;;;10.05;6.70;;;10.00;71.10;;;;;;5097269;28;20020;-83
2022/05/02 01:14:35;;;;;;;11.93;7.93;;;9.90;71.30;;;;;;5097224;28;20419;-83
2022/05/02 01:17:03;;;;;;;12.40;9.25;;;9.90;73.00;;;;;;5115392;28;20027;-84
2022/05/02 01:19:28;;;;;;;11.93;7.97;;;9.80;73.40;;;;;;5096574;28;20047;-83
2022/05/02 01:21:54;;;;;;;11.45;8.63;;;9.70;73.50;;;;;;5115347;28;20061;-82
2022/05/02 01:24:20;;;;;;;10.73;7.68;;;9.70;75.10;;;;;;5115267;28;20031;-83
2022/05/02 01:26:45;;;;;;;10.45;7.15;;;9.60;75.70;;;;;;5096938;28;20031;-83
2022/05/02 01:29:11;;;;;;;10.32;7.53;;;9.60;75.10;;;;;;5115241;28;20024;-83
2022/05/02 01:31:36;;;;;;;10.35;7.47;;;9.50;75.60;;;;;;5115322;28;20385;-83
2022/05/02 01:34:02;;;;;;;12.85;7.28;;;9.50;75.60;;;;;;5096781;28;20020;-83
2022/05/02 01:36:28;;;;;;;8.98;7.15;;;9.40;75.30;;;;;;5115147;28;20019;-83
2022/05/02 01:38:54;;;;;;;14.95;10.05;;;9.30;75.60;;;;;;5096763;28;20023;-83
2022/05/02 01:41:19;;;;;;;15.18;10.50;;;9.30;76.60;;;;;;5096671;28;20015;-81
2022/05/02 01:43:45;;;;;;;17.83;11.10;;;9.20;79.70;;;;;;5114841;28;20146;-84
2022/05/02 01:46:12;;;;;;;16.25;11.38;;;9.10;81.70;;;;;;5114503;28;20473;-84
2022/05/02 01:48:38;;;;;;;18.55;12.07;;;9.00;83.20;;;;;;5096418;28;20088;-80
2022/05/02 01:51:04;;;;;;;18.65;12.95;;;9.00;84.80;;;;;;5114783;28;20020;-80
2022/05/02 01:53:30;;;;;;;21.17;13.07;;;8.90;85.40;;;;;;5114752;28;20027;-83
2022/05/02 01:55:55;;;;;;;18.92;13.18;;;8.80;88.30;;;;;;5096423;28;20051;-83
2022/05/02 01:58:21;;;;;;;17.00;12.82;;;8.70;89.10;;;;;;5096285;28;20059;-83
2022/05/02 02:00:47;;;;;;;18.75;13.02;;;8.70;89.20;;;;;;5096385;28;20480;-85
2022/05/02 02:03:13;;;;;;;19.30;13.65;;;8.60;91.00;;;;;;5096191;28;20020;-85
2022/05/02 02:05:48;;;;;;;21.98;14.38;;;8.50;91.60;;;;;;5114702;28;20030;-86
2022/05/02 02:08:19;;;;;;;24.65;15.52;;;8.50;92.30;;;;;;5114412;28;20115;-84
2022/05/02 02:10:46;;;;;;;20.88;15.15;;;8.40;93.20;;;;;;5096288;28;20389;-83
2022/05/02 02:13:12;;;;;;;23.40;14.25;;;8.30;94.00;;;;;;5114446;28;20039;-84
2022/05/02 02:15:38;;;;;;;17.77;13.27;;;8.30;94.50;;;;;;5095965;28;20024;-83
2022/05/02 02:18:04;;;;;;;18.90;12.70;;;8.20;95.00;;;;;;5095787;28;20023;-84
2022/05/02 02:20:30;;;;;;;16.63;11.90;;;8.10;94.20;;;;;;5095890;28;20074;-82
2022/05/02 02:22:56;;;;;;;15.95;11.63;;;8.00;92.70;;;;;;5095747;28;20024;-83
2022/05/02 02:25:22;;;;;;;13.80;9.85;;;8.00;90.00;;;;;;5095957;28;20507;-83
2022/05/02 02:27:48;;;;;;;14.70;10.07;;;7.90;87.30;;;;;;5095696;28;20061;-83
2022/05/02 02:30:14;;;;;;;13.25;9.20;;;7.80;86.70;;;;;;5094920;28;20071;-85
2022/05/02 02:32:41;;;;;;;15.50;10.20;;;7.80;86.90;;;;;;5095764;28;20469;-83
2022/05/02 02:35:07;;;;;;;12.80;9.52;;;7.70;86.20;;;;;;5095837;28;20026;-85
2022/05/02 02:37:33;;;;;;;13.70;9.65;;;7.70;86.40;;;;;;5095707;28;20388;-83
2022/05/02 02:39:58;;;;;;;14.68;9.57;;;7.60;86.00;;;;;;5113892;28;20034;-83
2022/05/02 02:42:24;;;;;;;14.30;9.68;;;7.60;86.00;;;;;;5113798;28;20035;-83
2022/05/02 02:44:51;;;;;;;12.98;10.07;;;7.60;86.90;;;;;;5095563;28;20015;-83
2022/05/02 02:47:17;;;;;;;15.30;9.90;;;7.60;87.90;;;;;;5095324;28;20027;-86
2022/05/02 02:49:43;;;;;;;11.27;8.63;;;7.50;88.40;;;;;;5095483;28;20032;-82
2022/05/02 02:52:08;;;;;;;11.57;9.40;;;7.50;88.50;;;;;;5095162;28;20023;-86
2022/05/02 02:54:35;;;;;;;16.58;9.10;;;7.50;88.10;;;;;;5113710;28;20035;-85
2022/05/02 02:57:00;;;;;;;11.20;9.00;;;7.50;90.20;;;;;;5095081;28;20554;-83
2022/05/02 02:59:26;;;;;;;14.65;9.30;;;7.50;92.10;;;;;;5113760;28;20064;-83
2022/05/02 03:01:52;;;;;;;15.90;8.98;;;7.50;93.50;;;;;;5095365;28;20024;-83
2022/05/02 03:07:03;;;;;;;10.85;8.57;;;7.30;91.10;;;;;;5113627;28;20050;-83
2022/05/02 03:09:29;;;;;;;10.93;8.32;;;7.40;92.00;;;;;;5095269;28;20122;-82
2022/05/02 03:11:54;;;;;;;16.80;8.35;;;7.40;92.30;;;;;;5095308;28;20015;-84
2022/05/02 03:14:20;;;;;;;9.73;7.43;;;7.40;90.80;;;;;;5113369;28;20032;-83
2022/05/02 03:16:46;;;;;;;9.65;6.97;;;7.40;86.50;;;;;;5095179;28;20031;-84
2022/05/02 03:19:12;;;;;;;9.48;6.65;;;7.50;87.40;;;;;;5113501;28;20027;-83
2022/05/02 03:21:37;;;;;;;14.27;8.35;;;7.50;85.40;;;;;;5113298;28;20030;-85
2022/05/02 03:24:03;;;;;;;14.63;7.70;;;7.40;89.30;;;;;;5113147;28;20035;-84
2022/05/02 03:26:29;;;;;;;10.73;8.73;;;7.40;91.30;;;;;;5094996;28;20027;-82
2022/05/02 03:28:55;;;;;;;14.77;7.78;;;7.50;91.40;;;;;;5095094;28;20027;-84
2022/05/02 03:31:20;;;;;;;13.32;8.30;;;7.50;89.60;;;;;;5095033;28;20540;-85
2022/05/02 03:33:46;;;;;;;8.27;7.47;;;7.50;87.80;;;;;;5094982;28;20464;-85
2022/05/02 03:36:11;;;;;;;9.90;7.78;;;7.50;83.40;;;;;;5094939;28;20476;-83
2022/05/02 03:38:37;;;;;;;9.77;7.10;;;7.50;83.30;;;;;;5095090;28;20062;-83
2022/05/02 03:41:02;;;;;;;10.60;7.63;;;7.50;83.40;;;;;;5113350;28;20453;-85
2022/05/02 03:43:28;;;;;;;10.73;6.40;;;7.50;85.40;;;;;;5117418;28;20474;-82
2022/05/02 03:45:54;;;;;;;10.60;7.80;;;7.50;84.80;;;;;;5117285;28;20016;-82
2022/05/02 03:48:19;;;;;;;10.60;7.57;;;7.60;81.00;;;;;;5117062;28;20128;-82
2022/05/02 03:50:45;;;;;;;9.05;7.50;;;7.60;85.40;;;;;;5117297;28;20016;-86
2022/05/02 03:53:15;;;;;;;9.30;7.22;;;7.60;89.60;;;;;;5117122;28;20034;-82
2022/05/02 03:55:42;;;;;;;13.48;7.80;;;7.50;91.40;;;;;;5099237;28;20337;-85
2022/05/02 03:58:08;;;;;;;11.93;7.55;;;7.50;93.50;;;;;;5117009;28;20564;-85
2022/05/02 04:00:34;;;;;;;15.15;8.38;;;7.60;94.00;;;;;;5098825;28;20114;-84
2022/05/02 04:03:00;;;;;;;10.05;8.25;;;7.70;94.60;;;;;;5098643;28;20023;-84
2022/05/02 04:05:25;;;;;;;13.80;8.07;;;7.80;94.20;;;;;;5098760;28;20016;-82
2022/05/02 04:07:51;;;;;;;11.00;6.97;;;7.80;93.70;;;;;;5098481;28;20032;-85
2022/05/02 04:10:17;;;;;;;12.23;7.57;;;7.70;93.40;;;;;;5116748;28;20024;-83
2022/05/02 04:12:42;;;;;;;11.93;7.47;;;7.80;93.40;;;;;;5116741;28;20024;-83
2022/05/02 04:15:11;;;;;;;10.77;7.47;;;7.80;93.70;;;;;;5098395;28;20028;-84
2022/05/02 04:17:38;;;;;;;14.10;7.15;;;7.80;93.50;;;;;;5116509;28;20073;-84
2022/05/02 04:20:05;;;;;;;10.80;6.97;;;7.80;91.20;;;;;;5116387;28;20020;-85
2022/05/02 04:22:30;;;;;;;8.77;6.30;;;7.80;89.60;;;;;;5116459;28;20524;-85
2022/05/02 04:24:56;;;;;;;8.65;6.22;;;7.90;88.40;;;;;;5098247;28;20028;-82
2022/05/02 04:27:22;;;;;;;8.93;6.72;;;7.80;87.80;;;;;;5116340;28;20031;-85
2022/05/02 04:29:48;;;;;;;11.50;6.13;;;7.80;87.80;;;;;;5098075;28;20022;-84
2022/05/02 04:32:13;;;;;;;8.45;6.03;;;7.80;87.80;;;;;;5098106;28;20020;-81
2022/05/02 04:34:39;;;;;;;11.80;7.00;;;7.80;87.70;;;;;;5098113;28;20030;-82
2022/05/02 04:37:05;;;;;;;11.77;7.75;;;7.90;87.10;;;;;;5097967;28;20023;-81
2022/05/02 04:39:30;;;;;;;9.13;6.13;;;7.90;86.30;;;;;;5091385;28;20070;-84
2022/05/02 04:41:56;;;;;;;7.53;6.50;;;8.10;89.00;;;;;;5097746;28;20115;-84
2022/05/02 04:44:22;;;;;;;9.40;6.78;;;8.10;90.10;;;;;;5097634;28;20051;-84
2022/05/02 04:46:47;;;;;;;11.65;7.55;;;8.10;91.60;;;;;;5115857;28;20028;-81
2022/05/02 04:49:13;;;;;;;10.20;7.15;;;8.10;92.00;;;;;;5115858;28;20028;-82
2022/05/02 04:51:38;;;;;;;12.07;7.13;;;8.10;92.70;;;;;;5097392;28;20016;-81
2022/05/02 04:54:04;;;;;;;16.55;8.15;;;8.20;93.30;;;;;;5073253;28;20024;-81
2022/05/02 04:56:29;;;;;;;11.55;7.47;;;8.40;93.20;;;;;;5057081;28;20074;-82
2022/05/02 04:58:55;;;;;;;11.40;6.97;;;8.50;92.70;;;;;;5075174;28;20086;-82
2022/05/02 05:01:20;;;;;;;8.70;6.03;;;8.70;90.70;;;;;;5057203;28;20420;-82
2022/05/02 05:03:46;;;;;;;9.00;6.20;;;8.90;90.00;;;;;;5074922;28;20432;-81
2022/05/02 05:06:12;;;;;;;9.93;5.75;;;9.20;85.80;;;;;;5056645;28;20021;-83
2022/05/02 05:08:39;;;;;;;11.93;7.13;;;9.40;79.40;;;;;;5057045;28;20013;-86
2022/05/02 05:11:23;;;;;;;9.02;5.78;;;9.60;78.20;;;;;;5073621;28;20488;-82
2022/05/02 05:16:56;;;;;;;9.70;6.70;;;10.30;73.50;;;;;;5085375;28;20039;-84
2022/05/02 05:19:45;;;;;;;8.82;6.65;;;10.70;67.10;;;;;;5094921;28;20036;-86
2022/05/02 05:22:22;;;;;;;9.73;6.30;;;11.10;64.00;;;;;;5083246;28;20031;-85
2022/05/02 05:25:02;;;;;;;9.68;6.53;;;11.50;61.00;;;;;;5073383;28;20197;-84
2022/05/02 05:27:30;;;;;;;9.07;7.00;;;11.90;58.90;;;;;;5073114;28;20032;-81
2022/05/02 05:30:04;;;;;;;8.93;6.90;;;12.30;57.80;;;;;;5073301;28;20412;-81
2022/05/02 05:32:41;;;;;;;9.25;6.75;;;12.60;56.20;;;;;;5072529;28;20393;-83
2022/05/02 05:35:09;;;;;;;11.77;7.15;;;12.90;55.40;;;;;;5077125;28;20032;-82
2022/05/02 05:37:58;;;;;;;9.43;6.38;;;13.10;53.80;;;;;;5080064;28;20039;-83
2022/05/02 05:40:36;;;;;;;12.10;7.30;;;13.40;53.60;;;;;;5079709;28;20013;-83
2022/05/02 05:43:29;;;;;;;9.45;7.07;;;13.60;51.50;;;;;;5072994;28;20028;-82
2022/05/02 05:45:57;;;;;;;11.02;6.93;;;13.70;50.60;;;;;;5072895;28;20024;-82
2022/05/02 05:48:27;;;;;;;9.70;6.85;;;13.70;50.60;;;;;;5075710;28;20040;-82
2022/05/02 05:51:04;;;;;;;11.82;7.20;;;13.70;50.80;;;;;;5076250;28;20059;-82
2022/05/02 05:53:55;;;;;;;10.52;7.45;;;13.70;51.10;;;;;;5094378;28;20112;-83
2022/05/02 05:56:45;;;;;;;13.02;7.80;;;13.70;50.90;;;;;;5093995;28;20092;-83
2022/05/02 05:59:33;;;;;;;11.18;7.32;;;13.70;50.30;;;;;;5044808;28;20041;-84
2022/05/02 06:02:05;;;;;;;31.88;8.77;;;13.80;50.40;;;;;;5039052;28;20064;-84
2022/05/02 06:04:34;;;;;;;11.80;6.55;;;14.00;51.20;;;;;;5048488;28;20105;-84
2022/05/02 06:07:01;;;;;;;9.05;6.20;;;14.20;51.60;;;;;;5043570;28;20099;-84
2022/05/02 06:09:31;;;;;;;11.95;7.47;;;14.40;51.10;;;;;;5053955;28;20025;-84
2022/05/02 06:12:00;;;;;;;10.98;6.85;;;14.40;51.30;;;;;;5039192;28;20028;-83
2022/05/02 06:18:27;;;;;;;9.75;6.55;;;14.60;50.40;;;;;;5052463;28;20119;-86
2022/05/02 06:20:13;;;;;;;16.23;6.97;;;14.80;50.50;;;;;;5072110;28;20504;-84
2022/05/02 06:22:42;;;;;;;7.70;6.18;;;14.80;48.90;;;;;;5073419;28;20059;-83
2022/05/02 06:25:08;;;;;;;9.57;6.30;;;14.90;49.80;;;;;;5073499;28;20024;-82
2022/05/02 06:27:35;;;;;;;10.63;6.78;;;15.00;49.80;;;;;;5073331;28;20559;-83
2022/05/02 06:30:02;;;;;;;11.68;6.72;;;15.10;49.50;;;;;;5072035;28;20029;-84
2022/05/02 06:32:30;;;;;;;10.18;7.07;;;15.20;49.40;;;;;;5072083;28;20020;-84
2022/05/02 06:34:56;;;;;;;11.02;6.05;;;15.40;49.20;;;;;;5072178;28;20027;-77
2022/05/02 06:37:31;;;;;;;8.32;5.35;;;15.50;49.10;;;;;;5072130;28;20111;-81
2022/05/02 06:40:06;;;;;;;8.55;6.72;;;15.50;49.50;;;;;;5073233;28;20074;-91
2022/05/02 06:42:42;;;;;;;8.57;6.40;;;15.50;49.40;;;;;;5072210;28;20070;-91
2022/05/02 06:45:29;;;;;;;9.32;6.43;;;15.40;49.50;;;;;;5072224;28;20104;-91
2022/05/02 06:48:25;;;;;;;14.52;10.10;;;15.50;50.30;;;;;;5071888;28;20496;-90
2022/05/02 06:51:06;;;;;;;8.32;5.68;;;15.50;50.50;;;;;;5073356;28;20050;-89
2022/05/02 06:53:51;;;;;;;7.15;5.55;;;15.50;49.40;;;;;;5089040;28;20087;-78
2022/05/02 06:56:38;;;;;;;7.55;5.68;;;15.50;49.30;;;;;;5072866;28;20105;-84
2022/05/02 06:59:34;;;;;;;10.52;5.85;;;15.50;49.90;;;;;;5071706;28;20040;-90
2022/05/02 07:02:32;;;;;;;11.52;6.40;;;15.60;50.50;;;;;;5073075;28;20508;-87
2022/05/02 07:05:21;;;;;;;9.02;6.90;;;15.70;50.80;;;;;;5064877;28;20028;-90
2022/05/02 07:08:03;;;;;;;11.10;6.50;;;15.80;49.70;;;;;;5072150;28;20070;-87
2022/05/02 07:10:33;;;;;;;8.63;6.10;;;15.80;49.40;;;;;;5073627;28;20539;-90
2022/05/02 07:13:22;;;;;;;9.52;6.53;;;15.80;49.50;;;;;;5072030;28;20266;-89
2022/05/02 07:16:05;;;;;;;12.20;6.93;;;15.90;49.10;;;;;;5071134;28;20021;-87
2022/05/02 07:18:50;;;;;;;10.75;7.03;;;15.90;49.30;;;;;;5063943;28;20393;-87
2022/05/02 07:21:34;;;;;;;8.20;7.07;;;16.00;49.70;;;;;;5051533;28;20025;-85
2022/05/02 07:24:18;;;;;;;11.55;6.45;;;16.20;50.20;;;;;;5051272;28;20032;-80
2022/05/02 07:26:53;;;;;;;11.07;6.63;;;16.30;50.10;;;;;;5052716;28;20216;-82
2022/05/02 07:29:21;;;;;;;8.35;6.60;;;16.40;49.60;;;;;;5051527;28;20108;-86
2022/05/02 07:31:47;;;;;;;11.02;6.63;;;16.30;49.00;;;;;;5051379;28;20029;-85
2022/05/02 07:34:15;;;;;;;11.25;7.07;;;16.30;48.90;;;;;;5051258;28;20025;-87
2022/05/02 07:36:43;;;;;;;11.13;6.70;;;16.20;48.00;;;;;;5051257;28;20063;-86
2022/05/02 07:39:14;;;;;;;9.93;7.50;;;16.00;46.80;;;;;;5052679;28;20065;-80
2022/05/02 07:41:42;;;;;;;10.02;7.03;;;15.90;46.00;;;;;;5052842;28;20021;-81
2022/05/02 07:44:10;;;;;;;8.48;6.97;;;15.90;48.10;;;;;;5051179;28;20025;-87
2022/05/02 07:46:47;;;;;;;10.40;6.88;;;16.00;47.70;;;;;;5052532;28;20029;-80
2022/05/02 07:49:25;;;;;;;13.70;7.20;;;16.10;47.50;;;;;;5051285;28;20018;-81
2022/05/02 07:51:52;;;;;;;12.80;7.20;;;16.40;48.00;;;;;;5051162;28;20441;-91
2022/05/02 07:54:25;;;;;;;9.43;7.22;;;16.60;47.10;;;;;;5048235;28;20451;-87
2022/05/02 07:56:56;;;;;;;8.30;7.00;;;16.80;47.40;;;;;;5038118;28;20047;-87
2022/05/02 07:59:25;;;;;;;8.93;6.93;;;17.10;47.00;;;;;;5071841;28;20027;-89
2022/05/02 08:01:54;;;;;;;11.32;7.97;;;17.20;45.50;;;;;;5070451;28;20059;-89
2022/05/02 08:04:19;;;;;;;9.85;7.35;;;17.30;45.10;;;;;;5070202;28;20508;-89
2022/05/02 08:07:09;;;;;;;11.95;7.55;;;17.50;44.80;;;;;;5067318;28;20024;-87
2022/05/02 08:10:02;;;;;;;10.13;7.10;;;17.70;44.70;;;;;;5071172;28;20025;-88
2022/05/02 08:12:44;;;;;;;9.63;6.25;;;17.80;43.50;;;;;;5070445;28;20123;-89
2022/05/02 08:15:24;;;;;;;9.93;6.85;;;18.10;43.50;;;;;;5067639;28;20107;-90
2022/05/02 08:18:10;;;;;;;9.98;7.43;;;18.40;43.80;;;;;;5070434;28;20086;-89
2022/05/02 08:20:46;;;;;;;6.97;6.03;;;18.60;41.90;;;;;;5067023;28;20081;-86
2022/05/02 08:29:41;;;;;;;6.68;5.43;;;18.30;39.40;;;;;;5073619;28;20094;-79
2022/05/02 08:32:13;;;;;;;7.00;5.47;;;18.20;40.30;;;;;;5073877;28;20025;-80
2022/05/02 08:34:39;;;;;;;6.22;5.63;;;18.10;40.80;;;;;;5074875;28;20067;-88
2022/05/02 08:37:13;;;;;;;10.95;5.40;;;18.00;40.30;;;;;;5074975;28;20048;-81
2022/05/02 08:40:14;;;;;;;5.80;5.20;;;17.90;38.90;;;;;;5074780;28;20052;-78
2022/05/02 08:43:11;;;;;;;8.25;6.85;;;17.80;39.50;;;;;;5074349;28;20032;-80
2022/05/02 08:45:55;;;;;;;7.90;5.95;;;17.90;39.00;;;;;;5070890;28;20123;-80
2022/05/02 08:48:45;;;;;;;7.25;6.10;;;17.90;39.80;;;;;;5053866;28;20051;-81
2022/05/02 08:51:16;;;;;;;7.95;5.53;;;18.10;39.50;;;;;;5054333;28;20029;-79
2022/05/02 08:54:07;;;;;;;7.67;5.23;;;18.20;39.50;;;;;;5064252;28;20074;-90
2022/05/02 08:56:56;;;;;;;6.72;5.53;;;18.30;39.80;;;;;;5075845;28;20481;-85
2022/05/02 08:59:29;;;;;;;8.77;5.80;;;18.60;39.10;;;;;;5073559;28;20432;-81
2022/05/02 09:02:33;;;;;;;7.80;6.07;;;18.80;38.30;;;;;;5073218;28;20027;-85
2022/05/02 09:05:30;;;;;;;9.75;7.05;;;18.90;38.40;;;;;;5072381;28;20040;-82
2022/05/02 09:08:14;;;;;;;7.88;6.30;;;19.10;38.50;;;;;;5075290;28;20063;-84
2022/05/02 09:33:33;;;;;;;6.47;4.93;;;19.50;38.20;;;;;;5400173;22;20050;-84
2022/05/02 09:36:38;;;;;;;9.32;5.85;;;19.70;38.00;;;;;;5010430;28;20131;-84
2022/05/02 09:39:14;;;;;;;8.48;6.15;;;19.90;37.80;;;;;;4993775;28;20041;-85
2022/05/02 09:42:03;;;;;;;5.30;4.50;;;20.10;37.30;;;;;;4993540;28;20856;-85
2022/05/02 09:50:37;;;;;;;6.85;5.05;;;19.70;33.90;;;;;;4973051;28;20037;-81
2022/05/02 09:53:18;;;;;;;5.80;4.90;;;19.80;33.90;;;;;;4974119;28;20023;-81
2022/05/02 09:58:55;;;;;;;5.75;4.80;;;20.00;35.70;;;;;;4972607;28;20042;-78
2022/05/02 10:01:30;;;;;;;5.70;5.00;;;19.80;35.20;;;;;;4954344;28;20101;-84
2022/05/02 10:04:18;;;;;;;7.18;5.30;;;19.40;35.10;;;;;;4956612;28;20114;-82
2022/05/02 10:06:51;;;;;;;6.85;5.05;;;19.30;35.30;;;;;;4973616;28;20047;-82
2022/05/02 10:09:33;;;;;;;8.30;5.15;;;19.30;37.00;;;;;;4974462;28;20456;-80
2022/05/02 10:12:26;;;;;;;6.70;4.97;;;19.30;37.40;;;;;;4987340;28;20118;-80
2022/05/02 10:15:02;;;;;;;;;;;19.40;37.00;;;;;;4973686;28;20026;-80
2022/05/02 10:17:51;;;;;;;5.55;4.78;;;19.30;36.70;;;;;;4988625;28;20204;-76
2022/05/02 10:20:18;;;;;;;7.35;5.10;;;19.40;36.60;;;;;;4972417;28;20488;-77
2022/05/02 10:23:10;;;;;;;4.72;4.28;;;19.40;36.80;;;;;;4992329;28;20048;-79
2022/05/02 10:25:41;;;;;;;8.77;5.45;;;19.40;36.90;;;;;;4974788;28;20040;-79
2022/05/02 10:28:29;;;;;;;9.70;5.05;;;19.30;37.20;;;;;;4975636;28;20125;-79
2022/05/02 10:31:09;;;;;;;6.28;5.00;;;19.30;37.00;;;;;;4992747;28;20501;-77
2022/05/02 10:33:49;;;;;;;5.70;5.15;;;19.30;36.60;;;;;;4992418;28;20046;-77
2022/05/02 10:36:18;;;;;;;6.32;4.63;;;19.40;36.00;;;;;;4975062;28;20034;-78
2022/05/02 10:38:54;;;;;;;8.90;5.57;;;19.70;36.70;;;;;;4975011;28;20073;-78
2022/05/02 10:41:44;;;;;;;9.73;4.72;;;19.70;35.00;;;;;;4991956;28;20031;-77
2022/05/02 10:44:15;;;;;;;5.90;4.63;;;19.70;35.90;;;;;;4992996;28;20525;-75
2022/05/02 10:46:44;;;;;;;6.70;4.68;;;19.60;36.10;;;;;;4991808;28;20035;-76
2022/05/02 10:49:50;;;;;;;6.57;4.90;;;19.70;35.60;;;;;;4992498;28;20030;-76
2022/05/02 10:52:42;;;;;;;7.18;5.03;;;19.70;37.40;;;;;;4992087;28;20057;-77
2022/05/02 10:55:18;;;;;;;6.53;5.68;;;19.90;36.60;;;;;;4992575;28;20109;-76
2022/05/02 10:57:54;;;;;;;6.82;4.72;;;20.30;35.40;;;;;;4992755;28;20034;-76
2022/05/02 11:00:20;;;;;;;6.40;5.30;;;20.60;34.90;;;;;;4992826;28;20022;-86
2022/05/02 11:11:50;;;;;;;5.15;4.70;;;20.40;33.50;;;;;;5264455;23;20144;-78
2022/05/02 11:14:39;;;;;;;5.53;4.97;;;20.20;33.40;;;;;;5020345;28;20543;-79
2022/05/02 11:17:38;;;;;;;5.25;4.75;;;20.40;33.60;;;;;;5000010;28;20434;-80
2022/05/02 11:23:14;;;;;;;7.40;5.15;;;21.10;33.90;;;;;;5001315;28;20092;-76
2022/05/02 11:26:11;;;;;;;7.70;6.70;;;21.50;33.80;;;;;;4996838;28;20030;-80
2022/05/02 11:28:56;;;;;;;5.70;5.15;;;21.60;33.10;;;;;;4974565;28;20458;-80
2022/05/02 11:31:38;;;;;;;8.02;5.95;;;21.60;33.30;;;;;;4961804;28;20026;-85
2022/05/02 11:34:19;;;;;;;7.03;5.75;;;21.50;33.30;;;;;;4989823;28;20117;-87
2022/05/02 11:36:51;;;;;;;7.85;4.75;;;21.50;32.60;;;;;;4984616;28;20038;-86
2022/05/02 11:39:23;;;;;;;5.90;4.90;;;21.40;33.20;;;;;;4993225;28;20427;-87
2022/05/02 11:41:55;;;;;;;5.90;4.60;;;21.60;33.50;;;;;;5007511;28;20034;-87
2022/05/02 11:44:24;;;;;;;;;;;21.60;34.30;;;;;;4991873;28;20419;-81
2022/05/02 11:47:06;;;;;;;5.60;5.05;;;21.30;34.30;;;;;;5010824;28;19909;-86
2022/05/02 11:50:01;;;;;;;6.88;5.10;;;20.90;34.30;;;;;;4992566;28;20503;-85
2022/05/02 11:52:36;;;;;;;5.30;4.80;;;20.50;34.40;;;;;;4992708;28;20041;-88
2022/05/02 11:55:04;;;;;;;7.78;5.00;;;20.20;34.90;;;;;;4992848;28;20022;-80
2022/05/02 11:57:38;;;;;;;6.25;5.05;;;20.10;34.90;;;;;;4989381;28;20065;-87
2022/05/02 12:00:09;;;;;;;5.22;4.72;;;19.90;35.00;;;;;;5012790;28;20375;-86
2022/05/02 12:02:38;;;;;;;5.47;4.57;;;19.70;34.80;;;;;;5012040;28;20036;-82
2022/05/02 12:05:25;;;;;;;8.30;5.20;;;20.00;35.10;;;;;;4996933;28;20026;-83
2022/05/02 12:07:54;;;;;;;7.72;5.05;;;19.90;35.20;;;;;;5001061;28;20076;-84
2022/05/02 12:10:30;;;;;;;6.07;4.97;;;20.10;34.80;;;;;;4996479;28;20044;-87
2022/05/02 12:12:57;;;;;;;8.02;5.68;;;20.00;35.10;;;;;;5014549;28;20018;-82
2022/05/02 12:15:24;;;;;;;5.65;5.05;;;20.10;35.10;;;;;;4996703;28;20022;-83
2022/05/02 12:17:50;;;;;;;5.40;4.90;;;20.30;35.20;;;;;;4998161;28;20320;-87
2022/05/02 12:20:35;;;;;;;5.10;4.57;;;20.40;35.00;;;;;;4998470;28;20032;-81
2022/05/02 12:23:16;;;;;;;20.73;10.65;;;20.50;34.50;;;;;;5016166;28;20053;-80
2022/05/02 12:25:56;;;;;;;17.23;9.05;;;20.90;35.60;;;;;;5016220;28;20026;-80
2022/05/02 12:28:41;;;;;;;6.00;5.03;;;20.60;34.70;;;;;;4998238;28;20048;-78
2022/05/02 12:31:09;;;;;;;5.50;4.72;;;20.00;34.20;;;;;;4998296;28;20398;-80
2022/05/02 12:33:43;;;;;;;5.65;4.53;;;20.00;34.60;;;;;;4998117;28;20029;-79
2022/05/02 12:36:20;;;;;;;7.22;4.68;;;19.90;35.90;;;;;;5015837;28;20018;-79
2022/05/02 12:39:02;;;;;;;5.43;4.72;;;19.80;35.10;;;;;;4998232;28;20541;-79
2022/05/02 12:41:30;;;;;;;5.70;4.53;;;19.90;35.30;;;;;;4998155;28;20030;-79
2022/05/02 12:44:16;;;;;;;5.82;4.25;;;19.80;35.20;;;;;;4998173;28;20013;-79
2022/05/02 12:46:47;;;;;;;5.28;4.78;;;19.90;35.20;;;;;;5014316;28;20054;-79
2022/05/02 12:49:24;;;;;;;7.32;4.95;;;19.80;35.30;;;;;;5014156;28;20021;-79
2022/05/02 12:51:53;;;;;;;5.15;4.63;;;19.70;35.00;;;;;;4997729;28;20552;-79
2022/05/02 12:54:21;;;;;;;5.57;4.80;;;19.70;35.30;;;;;;4997714;28;20164;-81
2022/05/02 13:02:35;;;;;;;6.00;5.50;;;19.80;35.30;;;;;;5015692;28;20029;-78
2022/05/02 13:05:06;;;;;;;5.85;5.07;;;19.90;34.90;;;;;;5015297;28;20053;-79
2022/05/02 13:07:57;;;;;;;8.02;4.93;;;19.80;34.00;;;;;;5015394;28;20030;-78
2022/05/02 13:10:29;;;;;;;9.00;5.13;;;20.00;34.20;;;;;;4993252;28;20438;-84
2022/05/02 13:13:09;;;;;;;6.72;4.82;;;20.10;33.70;;;;;;4994434;28;20027;-82
2022/05/02 13:15:41;;;;;;;6.82;4.57;;;20.30;33.70;;;;;;4994865;28;20022;-87
2022/05/02 13:18:09;;;;;;;7.63;4.72;;;20.40;34.50;;;;;;4995237;28;20372;-84
2022/05/02 13:20:36;;;;;;;5.85;4.50;;;20.50;34.40;;;;;;4995406;28;20022;-83
2022/05/02 13:23:08;;;;;;;5.60;4.82;;;20.60;34.00;;;;;;4995450;28;20472;-86
2022/05/02 13:25:51;;;;;;;6.38;4.15;;;20.70;34.40;;;;;;4995375;28;20057;-86
2022/05/02 13:28:29;;;;;;;5.45;4.50;;;20.70;34.40;;;;;;4993668;28;20045;-85
2022/05/02 13:31:05;;;;;;;7.82;4.68;;;20.70;33.90;;;;;;4993801;28;20030;-87
2022/05/02 13:33:39;;;;;;;6.05;4.90;;;20.80;34.50;;;;;;4993270;28;20073;-86
2022/05/02 13:36:07;;;;;;;7.13;4.47;;;20.80;34.60;;;;;;4994122;28;20040;-87
2022/05/02 13:39:05;;;;;;;8.20;4.35;;;20.80;35.00;;;;;;4993901;28;20030;-86
2022/05/02 13:41:48;;;;;;;4.75;4.35;;;20.80;35.60;;;;;;4993267;28;20031;-84
2022/05/02 13:44:13;;;;;;;;;;;20.70;35.50;;;;;;4995172;28;20031;-87
2022/05/02 13:46:53;;;;;;;7.15;4.55;;;20.60;34.00;;;;;;4992301;28;20262;-86
2022/05/02 13:49:35;;;;;;;8.27;4.75;;;20.90;33.50;;;;;;4991939;28;20023;-87
2022/05/02 13:52:08;;;;;;;5.38;4.88;;;21.00;33.80;;;;;;4992922;28;20455;-81
2022/05/02 13:54:40;;;;;;;8.30;4.97;;;21.10;34.60;;;;;;4993681;28;20105;-87
2022/05/02 13:57:16;;;;;;;;;;;21.00;33.20;;;;;;4994021;28;20023;-80
2022/05/02 14:00:14;;;;;;;20.10;5.68;;;20.80;32.70;;;;;;5008258;28;19906;-76
2022/05/02 14:03:06;;;;;;;5.50;4.45;;;20.50;33.60;;;;;;4994534;28;20105;-79
2022/05/02 14:08:48;;;;;;;6.63;4.55;;;19.80;35.10;;;;;;4994506;28;20056;-76
2022/05/02 14:11:19;;;;;;;5.53;5.03;;;19.50;35.50;;;;;;4992624;28;20053;-76
2022/05/02 14:14:03;;;;;;;11.52;6.85;;;19.00;35.70;;;;;;4993400;28;20523;-79
2022/05/02 14:16:34;;;;;;;7.07;6.47;;;18.90;36.40;;;;;;4993047;28;20777;-75
2022/05/02 14:19:01;;;;;;;8.93;8.18;;;18.80;36.20;;;;;;4993472;28;20045;-80
2022/05/02 14:21:30;;;;;;;8.63;7.88;;;18.80;37.00;;;;;;4993087;28;20022;-81
2022/05/02 14:23:59;;;;;;;10.15;9.25;;;18.90;37.50;;;;;;4992991;28;20065;-80